sensor_id;sensor_type;location;lat;lon;timestamp;pressure;altitude;pressure_sealevel;temperature;humidity
70314;BME280;57725;47.526;18.986;2023-02-23T00:00:32;99847.09;;;10.28;100.00
70314;BME280;57725;47.526;18.986;2023-02-23T00:02:59;99856.66;;;10.29;100.00
70314;BME280;57725;47.526;18.986;2023-02-23T00:05:35;99851.44;;;10.29;100.00
70314;BME280;57725;47.526;18.986;2023-02-23T00:08:01;99859.25;;;10.29;100.00
70314;BME280;57725;47.526;18.986;2023-02-23T00:10:27;99856.66;;;10.29;100.00
70314;BME280;57725;47.526;18.986;2023-02-23T00:12:59;99855.03;;;10.27;100.00
70314;BME280;57725;47.526;18.986;2023-02-23T00:15:27;99861.03;;;10.29;100.00
70314;BME280;57725;47.526;18.986;2023-02-23T00:17:56;99852.34;;;10.28;100.00
70314;BME280;57725;47.526;18.986;2023-02-23T00:20:25;99861.03;;;10.29;100.00
70314;BME280;57725;47.526;18.986;2023-02-23T00:22:56;99854.09;;;10.28;100.00
70314;BME280;57725;47.526;18.986;2023-02-23T00:25:23;99852.44;;;10.27;100.00
70314;BME280;57725;47.526;18.986;2023-02-23T00:27:49;99853.25;;;10.27;100.00
70314;BME280;57725;47.526;18.986;2023-02-23T00:30:20;99854.19;;;10.26;100.00
70314;BME280;57725;47.526;18.986;2023-02-23T00:32:46;99861.94;;;10.28;100.00
70314;BME280;57725;47.526;18.986;2023-02-23T00:35:16;99859.31;;;10.28;100.00
70314;BME280;57725;47.526;18.986;2023-02-23T00:37:45;99859.47;;;10.25;100.00
70314;BME280;57725;47.526;18.986;2023-02-23T00:40:15;99865.50;;;10.27;100.00
70314;BME280;57725;47.526;18.986;2023-02-23T00:42:43;99856.81;;;10.26;100.00
70314;BME280;57725;47.526;18.986;2023-02-23T00:45:08;99862.03;;;10.26;100.00
70314;BME280;57725;47.526;18.986;2023-02-23T00:47:35;99867.25;;;10.26;100.00
70314;BME280;57725;47.526;18.986;2023-02-23T00:50:01;99868.09;;;10.27;100.00
70314;BME280;57725;47.526;18.986;2023-02-23T00:52:26;99863.78;;;10.26;100.00
70314;BME280;57725;47.526;18.986;2023-02-23T00:54:55;99864.75;;;10.23;100.00
70314;BME280;57725;47.526;18.986;2023-02-23T00:57:21;99869.97;;;10.23;100.00
70314;BME280;57725;47.526;18.986;2023-02-23T00:59:47;99869.13;;;10.23;100.00
70314;BME280;57725;47.526;18.986;2023-02-23T01:02:13;99872.53;;;10.25;100.00
70314;BME280;57725;47.526;18.986;2023-02-23T01:04:41;99868.28;;;10.22;100.00
70314;BME280;57725;47.526;18.986;2023-02-23T01:07:06;99874.34;;;10.23;100.00
70314;BME280;57725;47.526;18.986;2023-02-23T01:09:32;99873.56;;;10.21;100.00
70314;BME280;57725;47.526;18.986;2023-02-23T01:12:00;99873.44;;;10.24;100.00
70314;BME280;57725;47.526;18.986;2023-02-23T01:14:26;99874.34;;;10.23;100.00
70314;BME280;57725;47.526;18.986;2023-02-23T01:16:54;99878.69;;;10.24;100.00
70314;BME280;57725;47.526;18.986;2023-02-23T01:19:19;99872.66;;;10.22;100.00
70314;BME280;57725;47.526;18.986;2023-02-23T01:21:47;99872.66;;;10.22;100.00
70314;BME280;57725;47.526;18.986;2023-02-23T01:24:13;99876.97;;;10.23;100.00
70314;BME280;57725;47.526;18.986;2023-02-23T01:26:43;99873.50;;;10.22;100.00
70314;BME280;57725;47.526;18.986;2023-02-23T01:29:11;99875.31;;;10.20;100.00
70314;BME280;57725;47.526;18.986;2023-02-23T01:31:40;99872.72;;;10.20;100.00
70314;BME280;57725;47.526;18.986;2023-02-23T01:34:10;99877.03;;;10.21;100.00
70314;BME280;57725;47.526;18.986;2023-02-23T01:36:37;99874.41;;;10.21;100.00
70314;BME280;57725;47.526;18.986;2023-02-23T01:39:11;99873.56;;;10.21;100.00
70314;BME280;57725;47.526;18.986;2023-02-23T01:41:38;99872.72;;;10.20;100.00
70314;BME280;57725;47.526;18.986;2023-02-23T01:46:42;99866.69;;;10.18;100.00
70314;BME280;57725;47.526;18.986;2023-02-23T01:49:16;99867.50;;;10.20;100.00
70314;BME280;57725;47.526;18.986;2023-02-23T01:51:55;99869.25;;;10.20;100.00
70314;BME280;57725;47.526;18.986;2023-02-23T01:54:26;99865.81;;;10.17;100.00
70314;BME280;57725;47.526;18.986;2023-02-23T01:56:57;99855.63;;;10.11;100.00
70314;BME280;57725;47.526;18.986;2023-02-23T01:59:30;99861.50;;;10.16;100.00
70314;BME280;57725;47.526;18.986;2023-02-23T02:01:58;99861.47;;;10.18;100.00
70314;BME280;57725;47.526;18.986;2023-02-23T02:04:29;99862.31;;;10.19;100.00
70314;BME280;57725;47.526;18.986;2023-02-23T02:06:58;99864.09;;;10.18;100.00
70314;BME280;57725;47.526;18.986;2023-02-23T02:09:28;99865.81;;;10.17;100.00
70314;BME280;57725;47.526;18.986;2023-02-23T02:11:53;99863.19;;;10.17;100.00
70314;BME280;57725;47.526;18.986;2023-02-23T02:14:24;99860.59;;;10.17;100.00
70314;BME280;57725;47.526;18.986;2023-02-23T02:20:10;99855.44;;;10.16;100.00
70314;BME280;57725;47.526;18.986;2023-02-23T02:33:54;99852.06;;;10.14;100.00
70314;BME280;57725;47.526;18.986;2023-02-23T02:38:50;99854.66;;;10.14;100.00
70314;BME280;57725;47.526;18.986;2023-02-23T02:41:55;99862.50;;;10.14;100.00
70314;BME280;57725;47.526;18.986;2023-02-23T02:46:48;99858.25;;;10.11;100.00
70314;BME280;57725;47.526;18.986;2023-02-23T02:49:29;99859.09;;;10.12;100.00
70314;BME280;57725;47.526;18.986;2023-02-23T02:52:16;99859.09;;;10.12;100.00
70314;BME280;57725;47.526;18.986;2023-02-23T02:54:48;99861.72;;;10.12;100.00
70314;BME280;57725;47.526;18.986;2023-02-23T02:57:24;99860.06;;;10.09;100.00
70314;BME280;57725;47.526;18.986;2023-02-23T02:59:50;99869.53;;;10.12;100.00
70314;BME280;57725;47.526;18.986;2023-02-23T03:02:39;99867.00;;;10.10;100.00
70314;BME280;57725;47.526;18.986;2023-02-23T03:05:27;99867.00;;;10.10;100.00
70314;BME280;57725;47.526;18.986;2023-02-23T03:11:13;99856.66;;;10.07;100.00
70314;BME280;57725;47.526;18.986;2023-02-23T03:19:47;99870.50;;;10.09;100.00
70314;BME280;57725;47.526;18.986;2023-02-23T03:22:59;99871.44;;;10.08;100.00
70314;BME280;57725;47.526;18.986;2023-02-23T03:25:50;99874.03;;;10.08;100.00
70314;BME280;57725;47.526;18.986;2023-02-23T03:28:52;99876.66;;;10.08;100.00
70314;BME280;57725;47.526;18.986;2023-02-23T03:31:45;99873.25;;;10.06;100.00
70314;BME280;57725;47.526;18.986;2023-02-23T03:34:37;99876.66;;;10.08;100.00
70314;BME280;57725;47.526;18.986;2023-02-23T03:37:28;99874.09;;;10.07;100.00
70314;BME280;57725;47.526;18.986;2023-02-23T03:40:33;99878.47;;;10.06;100.00
70314;BME280;57725;47.526;18.986;2023-02-23T03:43:26;99875.00;;;10.06;100.00
70314;BME280;57725;47.526;18.986;2023-02-23T03:46:13;99879.38;;;10.05;100.00
70314;BME280;57725;47.526;18.986;2023-02-23T03:49:02;99869.94;;;10.03;100.00
70314;BME280;57725;47.526;18.986;2023-02-23T03:51:52;99878.53;;;10.05;100.00
70314;BME280;57725;47.526;18.986;2023-02-23T03:54:43;99867.38;;;10.01;100.00
70314;BME280;57725;47.526;18.986;2023-02-23T03:57:30;99874.22;;;10.04;100.00
70314;BME280;57725;47.526;18.986;2023-02-23T04:00:26;99874.31;;;10.02;100.00
70314;BME280;57725;47.526;18.986;2023-02-23T04:03:14;99871.75;;;10.01;100.00
70314;BME280;57725;47.526;18.986;2023-02-23T04:05:59;99876.81;;;10.04;100.00
70314;BME280;57725;47.526;18.986;2023-02-23T04:08:44;99874.31;;;10.02;100.00
70314;BME280;57725;47.526;18.986;2023-02-23T04:11:36;99880.38;;;10.03;100.00
70314;BME280;57725;47.526;18.986;2023-02-23T04:14:30;99879.53;;;10.02;100.00
70314;BME280;57725;47.526;18.986;2023-02-23T04:17:04;99876.06;;;10.02;100.00
70314;BME280;57725;47.526;18.986;2023-02-23T04:19:30;99856.44;;;9.92;100.00
70314;BME280;57725;47.526;18.986;2023-02-23T04:21:55;99875.16;;;10.03;100.00
70314;BME280;57725;47.526;18.986;2023-02-23T04:24:32;99875.22;;;10.01;100.00
70314;BME280;57725;47.526;18.986;2023-02-23T04:27:02;99876.97;;;10.01;100.00
70314;BME280;57725;47.526;18.986;2023-02-23T04:29:28;99871.75;;;10.01;100.00
70314;BME280;57725;47.526;18.986;2023-02-23T04:31:53;99877.81;;;10.01;100.00
70314;BME280;57725;47.526;18.986;2023-02-23T04:34:21;99876.97;;;10.01;100.00
70314;BME280;57725;47.526;18.986;2023-02-23T04:36:49;99885.72;;;10.00;100.00
70314;BME280;57725;47.526;18.986;2023-02-23T04:39:15;99883.09;;;10.00;100.00
70314;BME280;57725;47.526;18.986;2023-02-23T04:41:41;99889.22;;;9.99;100.00
70314;BME280;57725;47.526;18.986;2023-02-23T04:44:09;99881.41;;;9.99;100.00
70314;BME280;57725;47.526;18.986;2023-02-23T04:46:34;99884.88;;;9.99;100.00
70314;BME280;57725;47.526;18.986;2023-02-23T04:49:02;99884.88;;;9.99;100.00
70314;BME280;57725;47.526;18.986;2023-02-23T04:51:28;99884.13;;;9.96;100.00
70314;BME280;57725;47.526;18.986;2023-02-23T04:54:00;99879.75;;;9.96;100.00
70314;BME280;57725;47.526;18.986;2023-02-23T04:56:29;99883.28;;;9.95;100.00
70314;BME280;57725;47.526;18.986;2023-02-23T04:58:56;99884.91;;;9.98;100.00
70314;BME280;57725;47.526;18.986;2023-02-23T05:01:24;99881.47;;;9.97;100.00
70314;BME280;57725;47.526;18.986;2023-02-23T05:03:51;99878.84;;;9.97;100.00
70314;BME280;57725;47.526;18.986;2023-02-23T05:06:20;99883.22;;;9.97;100.00
70314;BME280;57725;47.526;18.986;2023-02-23T05:08:45;99889.28;;;9.97;100.00
70314;BME280;57725;47.526;18.986;2023-02-23T05:11:11;99886.69;;;9.97;100.00
70314;BME280;57725;47.526;18.986;2023-02-23T05:13:37;99888.44;;;9.97;100.00
70314;BME280;57725;47.526;18.986;2023-02-23T05:16:03;99880.59;;;9.97;100.00
70314;BME280;57725;47.526;18.986;2023-02-23T05:18:29;99890.25;;;9.95;100.00
70314;BME280;57725;47.526;18.986;2023-02-23T05:21:03;99889.41;;;9.94;100.00
70314;BME280;57725;47.526;18.986;2023-02-23T05:23:32;99894.56;;;9.96;100.00
70314;BME280;57725;47.526;18.986;2023-02-23T05:26:13;99898.09;;;9.95;100.00
70314;BME280;57725;47.526;18.986;2023-02-23T05:28:40;99892.00;;;9.94;100.00
70314;BME280;57725;47.526;18.986;2023-02-23T05:31:09;99892.06;;;9.93;100.00
70314;BME280;57725;47.526;18.986;2023-02-23T05:33:36;99896.38;;;9.94;100.00
70314;BME280;57725;47.526;18.986;2023-02-23T05:36:08;99901.59;;;9.94;100.00
70314;BME280;57725;47.526;18.986;2023-02-23T05:38:37;99893.78;;;9.94;100.00
70314;BME280;57725;47.526;18.986;2023-02-23T05:41:08;99898.16;;;9.93;100.00
70314;BME280;57725;47.526;18.986;2023-02-23T05:43:37;99899.00;;;9.94;100.00
70314;BME280;57725;47.526;18.986;2023-02-23T05:46:07;99894.69;;;9.93;100.00
70314;BME280;57725;47.526;18.986;2023-02-23T05:48:33;99893.91;;;9.91;100.00
70314;BME280;57725;47.526;18.986;2023-02-23T05:51:06;99906.06;;;9.92;100.00
70314;BME280;57725;47.526;18.986;2023-02-23T05:53:32;99897.38;;;9.91;100.00
70314;BME280;57725;47.526;18.986;2023-02-23T05:55:58;99899.16;;;9.91;100.00
70314;BME280;57725;47.526;18.986;2023-02-23T05:58:23;99900.00;;;9.91;100.00
70314;BME280;57725;47.526;18.986;2023-02-23T06:00:51;99912.19;;;9.91;100.00
70314;BME280;57725;47.526;18.986;2023-02-23T06:03:17;99911.41;;;9.89;100.00
70314;BME280;57725;47.526;18.986;2023-02-23T06:05:49;99913.06;;;9.91;100.00
70314;BME280;57725;47.526;18.986;2023-02-23T06:08:17;99914.88;;;9.89;100.00
70314;BME280;57725;47.526;18.986;2023-02-23T06:10:49;99912.25;;;9.89;100.00
70314;BME280;57725;47.526;18.986;2023-02-23T06:13:15;99917.53;;;9.88;100.00
70314;BME280;57725;47.526;18.986;2023-02-23T06:15:41;99918.50;;;9.85;100.00
70314;BME280;57725;47.526;18.986;2023-02-23T06:18:07;99921.06;;;9.87;100.00
70314;BME280;57725;47.526;18.986;2023-02-23T06:20:35;99930.59;;;9.88;100.00
70314;BME280;57725;47.526;18.986;2023-02-23T06:23:01;99928.84;;;9.88;100.00
70314;BME280;57725;47.526;18.986;2023-02-23T06:25:29;99931.56;;;9.85;100.00
70314;BME280;57725;47.526;18.986;2023-02-23T06:27:57;99940.25;;;9.86;100.00
70314;BME280;57725;47.526;18.986;2023-02-23T06:30:23;99942.78;;;9.87;100.00
70314;BME280;57725;47.526;18.986;2023-02-23T06:32:50;99944.56;;;9.87;100.00
70314;BME280;57725;47.526;18.986;2023-02-23T06:35:19;99951.47;;;9.88;100.00
70314;BME280;57725;47.526;18.986;2023-02-23T06:37:47;99948.91;;;9.86;100.00
70314;BME280;57725;47.526;18.986;2023-02-23T06:40:15;99942.97;;;9.82;100.00
70314;BME280;57725;47.526;18.986;2023-02-23T06:42:43;99950.63;;;9.87;100.00
70314;BME280;57725;47.526;18.986;2023-02-23T06:45:09;99955.91;;;9.86;100.00
70314;BME280;57725;47.526;18.986;2023-02-23T06:47:34;99949.84;;;9.85;100.00
70314;BME280;57725;47.526;18.986;2023-02-23T06:50:02;99952.44;;;9.85;100.00
70314;BME280;57725;47.526;18.986;2023-02-23T06:52:28;99957.66;;;9.85;100.00
70314;BME280;57725;47.526;18.986;2023-02-23T06:55:00;99962.88;;;9.85;100.00
70314;BME280;57725;47.526;18.986;2023-02-23T06:57:26;99954.19;;;9.85;100.00
70314;BME280;57725;47.526;18.986;2023-02-23T06:59:51;99954.31;;;9.81;100.00
70314;BME280;57725;47.526;18.986;2023-02-23T07:02:17;99961.28;;;9.81;100.00
70314;BME280;57725;47.526;18.986;2023-02-23T07:04:50;99959.47;;;9.83;100.00
70314;BME280;57725;47.526;18.986;2023-02-23T07:07:18;99964.69;;;9.83;100.00
70314;BME280;57725;47.526;18.986;2023-02-23T07:09:43;99963.91;;;9.81;100.00
70314;BME280;57725;47.526;18.986;2023-02-23T07:12:09;99970.84;;;9.82;100.00
70314;BME280;57725;47.526;18.986;2023-02-23T07:14:40;99972.59;;;9.81;100.00
70314;BME280;57725;47.526;18.986;2023-02-23T07:17:06;99967.38;;;9.81;100.00
70314;BME280;57725;47.526;18.986;2023-02-23T07:19:32;99955.41;;;9.76;100.00
70314;BME280;57725;47.526;18.986;2023-02-23T07:21:59;99962.22;;;9.80;100.00
70314;BME280;57725;47.526;18.986;2023-02-23T07:24:25;99975.28;;;9.80;100.00
70314;BME280;57725;47.526;18.986;2023-02-23T07:26:53;99971.72;;;9.81;100.00
70314;BME280;57725;47.526;18.986;2023-02-23T07:29:19;99978.75;;;9.80;100.00
70314;BME280;57725;47.526;18.986;2023-02-23T07:31:47;99964.09;;;9.76;100.00
70314;BME280;57725;47.526;18.986;2023-02-23T07:34:15;99966.66;;;9.78;100.00
70314;BME280;57725;47.526;18.986;2023-02-23T07:36:40;99964.94;;;9.77;100.00
70314;BME280;57725;47.526;18.986;2023-02-23T07:39:09;99972.78;;;9.77;100.00
70314;BME280;57725;47.526;18.986;2023-02-23T07:41:37;99977.91;;;9.80;100.00
70314;BME280;57725;47.526;18.986;2023-02-23T07:44:02;99983.13;;;9.80;100.00
70314;BME280;57725;47.526;18.986;2023-02-23T07:46:30;99975.34;;;9.78;100.00
70314;BME280;57725;47.526;18.986;2023-02-23T07:48:55;99976.19;;;9.79;100.00
70314;BME280;57725;47.526;18.986;2023-02-23T07:51:23;99975.41;;;9.77;100.00
70314;BME280;57725;47.526;18.986;2023-02-23T07:53:48;99975.34;;;9.78;100.00
70314;BME280;57725;47.526;18.986;2023-02-23T07:56:18;99979.72;;;9.78;100.00
70314;BME280;57725;47.526;18.986;2023-02-23T07:58:44;99969.31;;;9.76;100.00
70314;BME280;57725;47.526;18.986;2023-02-23T08:01:10;99974.50;;;9.78;100.00
70314;BME280;57725;47.526;18.986;2023-02-23T08:03:36;99962.41;;;9.75;100.00
70314;BME280;57725;47.526;18.986;2023-02-23T08:06:05;99971.94;;;9.76;100.00
70314;BME280;57725;47.526;18.986;2023-02-23T08:08:33;99975.41;;;9.77;100.00
70314;BME280;57725;47.526;18.986;2023-02-23T08:11:07;99969.38;;;9.75;100.00
70314;BME280;57725;47.526;18.986;2023-02-23T08:13:32;99978.00;;;9.77;100.00
70314;BME280;57725;47.526;18.986;2023-02-23T08:15:58;99982.38;;;9.76;100.00
70314;BME280;57725;47.526;18.986;2023-02-23T08:18:24;99981.53;;;9.76;100.00
70314;BME280;57725;47.526;18.986;2023-02-23T08:20:49;99981.53;;;9.76;100.00
70314;BME280;57725;47.526;18.986;2023-02-23T08:23:17;99982.38;;;9.76;100.00
70314;BME280;57725;47.526;18.986;2023-02-23T08:25:43;99981.53;;;9.76;100.00
70314;BME280;57725;47.526;18.986;2023-02-23T08:28:08;99981.53;;;9.76;100.00
70314;BME280;57725;47.526;18.986;2023-02-23T08:30:36;99988.56;;;9.74;100.00
70314;BME280;57725;47.526;18.986;2023-02-23T08:33:04;99991.97;;;9.76;100.00
70314;BME280;57725;47.526;18.986;2023-02-23T08:35:34;99984.25;;;9.73;100.00
70314;BME280;57725;47.526;18.986;2023-02-23T08:38:00;99989.50;;;9.71;100.00
70314;BME280;57725;47.526;18.986;2023-02-23T08:40:28;99985.94;;;9.74;100.00
70314;BME280;57725;47.526;18.986;2023-02-23T08:42:53;99992.00;;;9.74;100.00
70314;BME280;57725;47.526;18.986;2023-02-23T08:45:21;99991.97;;;9.76;100.00
70314;BME280;57725;47.526;18.986;2023-02-23T08:47:49;99997.19;;;9.76;100.00
70314;BME280;57725;47.526;18.986;2023-02-23T08:50:24;99995.53;;;9.73;100.00
70314;BME280;57725;47.526;18.986;2023-02-23T08:52:49;99993.78;;;9.74;100.00
70314;BME280;57725;47.526;18.986;2023-02-23T08:55:15;99999.78;;;9.76;100.00
70314;BME280;57725;47.526;18.986;2023-02-23T08:57:45;99992.06;;;9.73;100.00
70314;BME280;57725;47.526;18.986;2023-02-23T09:00:11;99996.34;;;9.75;100.00
70314;BME280;57725;47.526;18.986;2023-02-23T09:02:42;99999.78;;;9.76;100.00
70314;BME280;57725;47.526;18.986;2023-02-23T09:05:12;99994.69;;;9.73;100.00
70314;BME280;57725;47.526;18.986;2023-02-23T09:07:41;100003.31;;;9.75;100.00
70314;BME280;57725;47.526;18.986;2023-02-23T09:10:14;99988.66;;;9.71;100.00
70314;BME280;57725;47.526;18.986;2023-02-23T09:12:45;99992.97;;;9.72;100.00
70314;BME280;57725;47.526;18.986;2023-02-23T09:15:13;99991.28;;;9.71;100.00
70314;BME280;57725;47.526;18.986;2023-02-23T09:17:39;99997.28;;;9.73;100.00
70314;BME280;57725;47.526;18.986;2023-02-23T09:20:10;99992.00;;;9.74;100.00
70314;BME280;57725;47.526;18.986;2023-02-23T09:22:41;99995.53;;;9.73;100.00
70314;BME280;57725;47.526;18.986;2023-02-23T09:25:11;99996.38;;;9.74;100.00
70314;BME280;57725;47.526;18.986;2023-02-23T09:27:38;99999.84;;;9.74;100.00
70314;BME280;57725;47.526;18.986;2023-02-23T09:30:07;99996.38;;;9.74;100.00
70314;BME280;57725;47.526;18.986;2023-02-23T09:32:37;99996.38;;;9.74;100.00
70314;BME280;57725;47.526;18.986;2023-02-23T09:35:03;100005.91;;;9.75;100.00
70314;BME280;57725;47.526;18.986;2023-02-23T09:37:28;100002.47;;;9.74;100.00
70314;BME280;57725;47.526;18.986;2023-02-23T09:39:53;99999.00;;;9.74;100.00
70314;BME280;57725;47.526;18.986;2023-02-23T09:45:08;100002.47;;;9.74;100.00
70314;BME280;57725;47.526;18.986;2023-02-23T09:47:54;100003.38;;;9.73;100.00
70314;BME280;57725;47.526;18.986;2023-02-23T09:50:27;100001.59;;;9.74;100.00
70314;BME280;57725;47.526;18.986;2023-02-23T09:53:05;100003.31;;;9.75;100.00
70314;BME280;57725;47.526;18.986;2023-02-23T09:55:31;100000.75;;;9.73;100.00
70314;BME280;57725;47.526;18.986;2023-02-23T09:58:07;99996.38;;;9.74;100.00
70314;BME280;57725;47.526;18.986;2023-02-23T10:00:40;100005.03;;;9.76;100.00
70314;BME280;57725;47.526;18.986;2023-02-23T10:03:32;100002.41;;;9.76;100.00
70314;BME280;57725;47.526;18.986;2023-02-23T10:06:04;99998.94;;;9.75;100.00
70314;BME280;57725;47.526;18.986;2023-02-23T10:08:42;100006.78;;;9.75;100.00
70314;BME280;57725;47.526;18.986;2023-02-23T10:21:53;100000.66;;;9.76;100.00
70314;BME280;57725;47.526;18.986;2023-02-23T10:25:10;100004.13;;;9.77;100.00
70314;BME280;57725;47.526;18.986;2023-02-23T10:27:40;99999.78;;;9.76;100.00
70314;BME280;57725;47.526;18.986;2023-02-23T10:30:23;99997.19;;;9.76;100.00
70314;BME280;57725;47.526;18.986;2023-02-23T10:35:38;99991.06;;;9.77;100.00
70314;BME280;57725;47.526;18.986;2023-02-23T10:38:04;99990.22;;;9.76;100.00
70314;BME280;57725;47.526;18.986;2023-02-23T10:40:32;99991.06;;;9.77;100.00
70314;BME280;57725;47.526;18.986;2023-02-23T10:43:00;99986.69;;;9.77;100.00
70314;BME280;57725;47.526;18.986;2023-02-23T10:45:40;99984.06;;;9.77;100.00
70314;BME280;57725;47.526;18.986;2023-02-23T10:48:22;99986.69;;;9.77;100.00
70314;BME280;57725;47.526;18.986;2023-02-23T10:50:53;99980.63;;;9.77;100.00
70314;BME280;57725;47.526;18.986;2023-02-23T10:53:25;99971.88;;;9.78;100.00
70314;BME280;57725;47.526;18.986;2023-02-23T10:58:42;99961.44;;;9.78;100.00
70314;BME280;57725;47.526;18.986;2023-02-23T11:01:11;99968.34;;;9.79;100.00
70314;BME280;57725;47.526;18.986;2023-02-23T11:03:44;99963.13;;;9.79;100.00
70314;BME280;57725;47.526;18.986;2023-02-23T11:06:33;99956.25;;;9.76;100.00
70314;BME280;57725;47.526;18.986;2023-02-23T11:09:31;99958.78;;;9.79;100.00
70314;BME280;57725;47.526;18.986;2023-02-23T11:12:14;99960.63;;;9.76;100.00
70314;BME280;57725;47.526;18.986;2023-02-23T11:14:43;99960.53;;;9.79;100.00
70314;BME280;57725;47.526;18.986;2023-02-23T11:17:27;99957.00;;;9.80;100.00
70314;BME280;57725;47.526;18.986;2023-02-23T11:19:58;99947.41;;;9.80;100.00
70314;BME280;57725;47.526;18.986;2023-02-23T11:22:23;99948.31;;;9.79;100.00
70314;BME280;57725;47.526;18.986;2023-02-23T11:24:53;99948.25;;;9.81;100.00
70314;BME280;57725;47.526;18.986;2023-02-23T11:27:23;99944.81;;;9.80;100.00
70314;BME280;57725;47.526;18.986;2023-02-23T11:29:50;99945.63;;;9.81;100.00
70314;BME280;57725;47.526;18.986;2023-02-23T11:32:22;99948.25;;;9.81;100.00
70314;BME280;57725;47.526;18.986;2023-02-23T11:35:10;99938.66;;;9.81;100.00
70314;BME280;57725;47.526;18.986;2023-02-23T11:37:37;99941.19;;;9.83;100.00
70314;BME280;57725;47.526;18.986;2023-02-23T11:40:18;99933.41;;;9.81;100.00
70314;BME280;57725;47.526;18.986;2023-02-23T11:45:26;99937.69;;;9.84;100.00
70314;BME280;57725;47.526;18.986;2023-02-23T11:47:58;99933.31;;;9.85;100.00
70314;BME280;57725;47.526;18.986;2023-02-23T11:50:33;99926.34;;;9.85;100.00
70314;BME280;57725;47.526;18.986;2023-02-23T11:53:12;99928.09;;;9.85;100.00
70314;BME280;57725;47.526;18.986;2023-02-23T11:55:46;99921.09;;;9.85;100.00
70314;BME280;57725;47.526;18.986;2023-02-23T11:58:28;99925.41;;;9.86;100.00
70314;BME280;57725;47.526;18.986;2023-02-23T12:01:04;99922.81;;;9.86;100.00
70314;BME280;57725;47.526;18.986;2023-02-23T12:03:39;99928.03;;;9.86;100.00
70314;BME280;57725;47.526;18.986;2023-02-23T12:06:09;99921.06;;;9.87;100.00
70314;BME280;57725;47.526;18.986;2023-02-23T12:08:49;99918.44;;;9.87;100.00
70314;BME280;57725;47.526;18.986;2023-02-23T12:11:28;99919.28;;;9.87;100.00
70314;BME280;57725;47.526;18.986;2023-02-23T12:14:02;99914.06;;;9.87;100.00
70314;BME280;57725;47.526;18.986;2023-02-23T12:16:55;99914.88;;;9.89;100.00
70314;BME280;57725;47.526;18.986;2023-02-23T12:19:31;99912.31;;;9.88;100.00
70314;BME280;57725;47.526;18.986;2023-02-23T12:22:02;99908.78;;;9.89;100.00
70314;BME280;57725;47.526;18.986;2023-02-23T12:27:23;99904.38;;;9.91;100.00
70314;BME280;57725;47.526;18.986;2023-02-23T12:32:48;99893.06;;;9.90;100.00
70314;BME280;57725;47.526;18.986;2023-02-23T12:35:41;99899.06;;;9.92;100.00
70314;BME280;57725;47.526;18.986;2023-02-23T12:40:38;99890.41;;;9.92;100.00
70314;BME280;57725;47.526;18.986;2023-02-23T12:43:28;99887.78;;;9.92;100.00
70314;BME280;57725;47.526;18.986;2023-02-23T12:46:10;99876.41;;;9.93;100.00
70314;BME280;57725;47.526;18.986;2023-02-23T12:53:52;99874.72;;;9.92;100.00
70314;BME280;57725;47.526;18.986;2023-02-23T12:59:21;99869.38;;;9.95;100.00
70314;BME280;57725;47.526;18.986;2023-02-23T13:01:56;99864.13;;;9.95;100.00
70314;BME280;57725;47.526;18.986;2023-02-23T13:18:54;99852.72;;;9.97;100.00
70314;BME280;57725;47.526;18.986;2023-02-23T13:21:32;99848.34;;;9.98;100.00
70314;BME280;57725;47.526;18.986;2023-02-23T13:24:18;99847.50;;;9.97;100.00
70314;BME280;57725;47.526;18.986;2023-02-23T13:31:57;99848.28;;;9.99;100.00
70314;BME280;57725;47.526;18.986;2023-02-23T13:34:33;99841.31;;;10.00;100.00
70314;BME280;57725;47.526;18.986;2023-02-23T13:37:04;99842.16;;;10.00;100.00
70314;BME280;57725;47.526;18.986;2023-02-23T13:47:31;99831.66;;;10.02;100.00
70314;BME280;57725;47.526;18.986;2023-02-23T13:50:25;99828.19;;;10.01;100.00
70314;BME280;57725;47.526;18.986;2023-02-23T13:52:53;99831.66;;;10.02;100.00
70314;BME280;57725;47.526;18.986;2023-02-23T13:58:03;99829.03;;;10.02;100.00
70314;BME280;57725;47.526;18.986;2023-02-23T14:00:34;99829.91;;;10.02;100.00
70314;BME280;57725;47.526;18.986;2023-02-23T14:03:05;99824.69;;;10.02;100.00
70314;BME280;57725;47.526;18.986;2023-02-23T14:05:41;99828.03;;;10.04;100.00
70314;BME280;57725;47.526;18.986;2023-02-23T14:08:40;99830.66;;;10.04;100.00
70314;BME280;57725;47.526;18.986;2023-02-23T14:11:07;99828.03;;;10.04;100.00
70314;BME280;57725;47.526;18.986;2023-02-23T14:13:34;99829.75;;;10.05;100.00
70314;BME280;57725;47.526;18.986;2023-02-23T14:18:54;99821.91;;;10.05;100.00
70314;BME280;57725;47.526;18.986;2023-02-23T14:21:46;99825.38;;;10.06;100.00
70314;BME280;57725;47.526;18.986;2023-02-23T14:24:18;99829.75;;;10.05;100.00
70314;BME280;57725;47.526;18.986;2023-02-23T14:29:40;99828.91;;;10.05;100.00
70314;BME280;57725;47.526;18.986;2023-02-23T14:34:59;99835.75;;;10.07;100.00
70314;BME280;57725;47.526;18.986;2023-02-23T14:37:33;99830.53;;;10.07;100.00
70314;BME280;57725;47.526;18.986;2023-02-23T14:40:00;99823.63;;;10.06;100.00
70314;BME280;57725;47.526;18.986;2023-02-23T14:42:27;99816.69;;;10.05;100.00
70314;BME280;57725;47.526;18.986;2023-02-23T14:44:57;99822.66;;;10.09;100.00
70314;BME280;57725;47.526;18.986;2023-02-23T14:47:27;99820.16;;;10.06;100.00
70314;BME280;57725;47.526;18.986;2023-02-23T14:49:58;99825.25;;;10.09;100.00
70314;BME280;57725;47.526;18.986;2023-02-23T14:52:31;99823.50;;;10.09;100.00
70314;BME280;57725;47.526;18.986;2023-02-23T14:55:21;99824.34;;;10.10;100.00
70314;BME280;57725;47.526;18.986;2023-02-23T14:57:50;99812.13;;;10.10;100.00